Time;durP1;ratioP1;P1;durP2;ratioP2;P2;SDS_P1;SDS_P2;PMS_P1;PMS_P2;Temp;Humidity;BMP_temperature;BMP_pressure;BME280_temperature;BME280_humidity;BME280_pressure;Samples;Min_cycle;Max_cycle;Signal;HPM_P1;HPM_P2
2023/01/20 00:01:48;;;;;;;16.90;13.33;;;2.70;99.90;;;;;;6279426;28;20466;-62
2023/01/20 00:04:52;;;;;;;16.17;14.53;;;2.70;99.90;;;;;;6279130;28;20496;-61
2023/01/20 00:07:56;;;;;;;17.80;14.30;;;2.70;99.90;;;;;;6278845;28;20473;-60
2023/01/20 00:10:59;;;;;;;16.80;14.60;;;2.60;99.90;;;;;;6278944;28;20470;-61
2023/01/20 00:14:03;;;;;;;20.10;15.23;;;2.60;99.90;;;;;;6279096;28;20644;-61
2023/01/20 00:17:06;;;;;;;18.30;15.40;;;2.50;99.90;;;;;;6278953;28;20476;-61
2023/01/20 00:20:12;;;;;;;18.67;15.20;;;2.40;99.90;;;;;;6278734;28;20514;-61
2023/01/20 00:23:15;;;;;;;17.47;14.77;;;2.30;99.90;;;;;;6278538;28;20470;-61
2023/01/20 00:26:21;;;;;;;19.90;14.87;;;2.20;99.90;;;;;;6289911;28;20473;-63
2023/01/20 00:29:24;;;;;;;17.77;14.80;;;2.20;99.90;;;;;;6300225;28;20478;-61
2023/01/20 00:32:28;;;;;;;17.97;15.67;;;2.20;99.90;;;;;;6278626;28;20992;-62
2023/01/20 00:35:32;;;;;;;18.10;14.97;;;2.20;99.90;;;;;;6278848;28;20470;-62
2023/01/20 00:38:36;;;;;;;17.97;15.57;;;2.20;99.90;;;;;;6276735;28;20477;-62
2023/01/20 00:41:39;;;;;;;17.50;15.30;;;2.20;99.90;;;;;;6267969;28;20479;-62
2023/01/20 00:44:42;;;;;;;22.03;16.27;;;2.20;99.90;;;;;;6260835;28;20485;-63
2023/01/20 00:47:45;;;;;;;23.17;16.70;;;2.20;99.90;;;;;;6265765;28;20482;-63
2023/01/20 00:50:50;;;;;;;37.20;19.50;;;2.20;99.90;;;;;;6263633;28;20470;-62
2023/01/20 00:53:53;;;;;;;19.30;16.93;;;2.10;99.90;;;;;;6265541;28;20474;-62
2023/01/20 00:56:56;;;;;;;22.80;18.63;;;2.20;99.90;;;;;;6260708;28;20486;-62
2023/01/20 00:59:59;;;;;;;24.97;17.73;;;2.20;99.90;;;;;;6263347;28;20471;-63
2023/01/20 01:03:04;;;;;;;21.50;17.30;;;2.10;99.90;;;;;;6261889;28;20462;-62
2023/01/20 01:06:11;;;;;;;25.70;17.57;;;2.10;99.90;;;;;;6262683;28;20474;-63
2023/01/20 01:09:14;;;;;;;25.20;18.90;;;2.00;99.90;;;;;;6264618;28;20458;-62
2023/01/20 01:12:17;;;;;;;22.90;17.47;;;2.00;99.90;;;;;;6270355;28;20453;-62
2023/01/20 01:15:21;;;;;;;26.10;19.00;;;2.00;99.90;;;;;;6263181;28;20899;-62
2023/01/20 01:18:24;;;;;;;30.83;19.60;;;2.00;99.90;;;;;;6276766;28;20915;-62
2023/01/20 01:21:28;;;;;;;26.17;19.37;;;2.00;99.90;;;;;;6266646;28;21299;-62
2023/01/20 01:24:32;;;;;;;24.67;18.00;;;2.00;99.90;;;;;;6273811;28;20462;-62
2023/01/20 01:27:35;;;;;;;24.80;16.70;;;2.10;99.90;;;;;;6265922;28;20469;-63
2023/01/20 01:30:38;;;;;;;23.23;16.93;;;2.10;99.90;;;;;;6259094;28;20958;-62
2023/01/20 01:33:42;;;;;;;22.77;17.90;;;2.00;99.90;;;;;;6265313;28;20513;-62
2023/01/20 01:36:46;;;;;;;30.23;17.87;;;2.00;99.90;;;;;;6257921;28;20466;-63
2023/01/20 01:39:50;;;;;;;26.80;17.70;;;2.00;99.90;;;;;;6264805;28;20494;-62
2023/01/20 01:42:53;;;;;;;22.40;16.13;;;2.10;99.90;;;;;;6258935;28;20460;-62
2023/01/20 01:45:56;;;;;;;20.13;16.37;;;2.10;99.90;;;;;;6262424;28;20522;-63
2023/01/20 01:49:01;;;;;;;20.10;16.43;;;2.00;99.90;;;;;;6261153;28;20952;-62
2023/01/20 01:52:09;;;;;;;26.27;17.70;;;2.10;99.90;;;;;;6257203;28;20467;-62
2023/01/20 01:55:15;;;;;;;27.53;17.07;;;2.00;99.90;;;;;;6262704;28;20514;-62
2023/01/20 01:58:23;;;;;;;26.63;16.77;;;2.00;99.90;;;;;;6262081;28;20806;-61
2023/01/20 02:01:27;;;;;;;30.03;18.43;;;2.00;99.90;;;;;;6263148;28;20482;-62
2023/01/20 02:04:32;;;;;;;23.73;16.03;;;2.00;99.90;;;;;;6276560;28;20977;-62
2023/01/20 02:07:38;;;;;;;20.33;16.20;;;2.10;99.90;;;;;;6276155;28;20476;-62
2023/01/20 02:10:41;;;;;;;21.27;17.00;;;2.10;99.90;;;;;;6276409;28;20473;-62
2023/01/20 02:13:44;;;;;;;18.33;15.77;;;2.20;99.90;;;;;;6276261;28;20974;-62
2023/01/20 02:16:59;;;;;;;20.50;17.10;;;2.10;99.90;;;;;;6276165;28;20980;-62
2023/01/20 02:20:29;;;;;;;21.90;17.77;;;2.10;99.90;;;;;;6275792;28;20481;-62
2023/01/20 02:23:52;;;;;;;21.03;16.60;;;2.20;99.90;;;;;;6275899;28;20467;-62
2023/01/20 02:27:04;;;;;;;32.17;17.10;;;2.20;99.90;;;;;;6292005;28;20470;-62
2023/01/20 02:30:37;;;;;;;21.20;16.80;;;2.20;99.90;;;;;;6300825;28;20798;-63
2023/01/20 02:33:46;;;;;;;22.60;17.27;;;2.10;99.90;;;;;;6275790;28;20804;-62
2023/01/20 02:36:55;;;;;;;22.70;16.10;;;2.10;99.90;;;;;;6250821;28;20811;-61
2023/01/20 02:40:15;;;;;;;19.47;16.27;;;2.00;99.90;;;;;;6249475;28;20486;-62
2023/01/20 02:43:24;;;;;;;19.03;16.40;;;2.10;99.90;;;;;;6250742;28;20485;-62
2023/01/20 02:46:33;;;;;;;18.80;15.50;;;2.10;99.90;;;;;;6251588;28;20467;-62
2023/01/20 02:49:42;;;;;;;18.00;15.30;;;2.20;99.90;;;;;;6249051;28;20478;-62
2023/01/20 02:52:50;;;;;;;19.63;16.17;;;2.10;99.90;;;;;;6249759;28;20530;-62
2023/01/20 02:55:55;;;;;;;16.47;13.27;;;1.90;99.90;;;;;;6250786;28;20493;-61
2023/01/20 02:59:02;;;;;;;15.50;13.40;;;1.90;99.90;;;;;;6250820;28;20486;-62
2023/01/20 03:02:09;;;;;;;16.13;12.40;;;1.80;99.90;;;;;;6245527;28;20847;-62
2023/01/20 03:05:18;;;;;;;14.03;12.30;;;1.80;99.90;;;;;;6250642;28;20554;-62
2023/01/20 03:08:23;;;;;;;15.60;12.70;;;1.80;99.90;;;;;;6250296;28;20487;-62
2023/01/20 03:11:29;;;;;;;18.90;15.30;;;1.80;99.90;;;;;;6250752;28;20474;-62
2023/01/20 03:14:32;;;;;;;19.43;15.70;;;1.70;99.90;;;;;;6250344;28;20478;-62
2023/01/20 03:17:35;;;;;;;17.63;15.10;;;1.60;99.90;;;;;;6250337;28;20497;-61
2023/01/20 03:20:40;;;;;;;29.53;16.03;;;1.60;99.90;;;;;;6249981;28;20490;-61
2023/01/20 03:23:46;;;;;;;22.87;15.63;;;1.60;99.90;;;;;;6269042;28;20803;-61
2023/01/20 03:26:49;;;;;;;20.77;18.10;;;1.60;99.90;;;;;;6289955;28;20469;-61
2023/01/20 03:29:53;;;;;;;21.90;16.97;;;1.50;99.90;;;;;;6299525;28;20794;-61
2023/01/20 03:32:56;;;;;;;17.73;15.43;;;1.50;99.90;;;;;;6298755;28;20493;-61
2023/01/20 03:36:01;;;;;;;22.00;15.37;;;1.60;99.90;;;;;;6299911;28;20477;-61
2023/01/20 03:39:05;;;;;;;16.53;14.17;;;1.60;99.90;;;;;;6299370;28;20469;-62
2023/01/20 03:42:13;;;;;;;17.57;15.20;;;1.60;99.90;;;;;;6298960;28;20494;-63
2023/01/20 03:45:22;;;;;;;18.83;15.07;;;1.70;99.90;;;;;;6299667;28;20454;-63
2023/01/20 03:48:34;;;;;;;17.10;15.20;;;1.80;99.90;;;;;;6299193;28;20973;-63
2023/01/20 03:51:53;;;;;;;18.00;14.30;;;1.80;99.90;;;;;;6299621;28;20474;-63
2023/01/20 03:55:02;;;;;;;15.67;13.00;;;1.90;99.90;;;;;;6299323;28;20473;-63
2023/01/20 03:58:09;;;;;;;15.93;13.90;;;1.90;99.90;;;;;;6299490;28;20477;-62
2023/01/20 04:01:14;;;;;;;13.40;11.73;;;2.00;99.90;;;;;;6299135;28;20477;-62
2023/01/20 04:04:21;;;;;;;12.30;10.77;;;2.00;99.90;;;;;;6299045;28;21087;-63
2023/01/20 04:07:27;;;;;;;12.60;11.20;;;1.90;99.90;;;;;;6289849;28;20476;-63
2023/01/20 04:10:32;;;;;;;9.87;8.97;;;1.90;99.90;;;;;;6299748;28;20484;-63
2023/01/20 04:13:36;;;;;;;10.63;9.73;;;1.90;99.90;;;;;;6299233;28;20958;-62
2023/01/20 04:16:39;;;;;;;13.50;9.40;;;1.90;99.90;;;;;;6299199;28;20473;-62
2023/01/20 04:19:43;;;;;;;9.43;8.40;;;2.00;99.90;;;;;;6298881;28;20929;-63
2023/01/20 04:22:52;;;;;;;9.57;8.67;;;1.90;99.90;;;;;;6287314;28;20477;-62
2023/01/20 04:25:55;;;;;;;8.70;7.80;;;2.00;99.90;;;;;;6282014;28;20473;-63
2023/01/20 04:28:58;;;;;;;9.13;8.23;;;1.90;99.90;;;;;;6299016;28;20473;-63
2023/01/20 04:32:02;;;;;;;10.17;8.00;;;1.90;99.90;;;;;;6299077;28;20468;-62
2023/01/20 04:35:06;;;;;;;9.57;8.60;;;1.90;99.90;;;;;;6298726;28;20531;-62
2023/01/20 04:38:11;;;;;;;9.60;8.33;;;1.90;99.90;;;;;;6264020;28;20475;-62
2023/01/20 04:41:14;;;;;;;10.90;7.87;;;1.90;99.90;;;;;;6249157;28;20479;-63
2023/01/20 04:44:17;;;;;;;7.83;7.10;;;1.90;99.90;;;;;;6252547;28;20486;-62
2023/01/20 04:47:20;;;;;;;8.43;7.53;;;1.90;99.90;;;;;;6253980;28;20971;-62
2023/01/20 04:50:24;;;;;;;11.00;9.90;;;1.90;99.90;;;;;;6253942;28;20475;-63
2023/01/20 04:53:28;;;;;;;13.60;11.70;;;1.90;99.90;;;;;;6255525;28;20481;-63
2023/01/20 04:56:31;;;;;;;13.60;12.20;;;1.90;99.90;;;;;;6255458;28;20479;-63
2023/01/20 04:59:35;;;;;;;14.67;13.17;;;1.90;99.90;;;;;;6253384;28;20479;-63
2023/01/20 05:02:38;;;;;;;17.33;13.73;;;1.80;99.90;;;;;;6253267;28;20817;-63
2023/01/20 05:05:41;;;;;;;20.17;15.73;;;1.80;99.90;;;;;;6253292;28;20959;-63
2023/01/20 05:08:46;;;;;;;19.03;14.97;;;1.70;99.90;;;;;;6251921;28;20474;-63
2023/01/20 05:11:49;;;;;;;19.60;15.80;;;1.60;99.90;;;;;;6246970;28;20483;-63
2023/01/20 05:14:52;;;;;;;16.83;14.93;;;1.50;99.90;;;;;;6251319;28;20470;-63
2023/01/20 05:17:55;;;;;;;18.37;14.73;;;1.40;99.90;;;;;;6251288;28;20490;-63
2023/01/20 05:20:58;;;;;;;20.67;15.50;;;1.40;99.90;;;;;;6251601;28;20490;-64
2023/01/20 05:24:03;;;;;;;16.33;13.90;;;1.40;99.90;;;;;;6274259;28;20474;-63
2023/01/20 05:27:06;;;;;;;17.67;15.23;;;1.40;99.90;;;;;;6295356;28;20462;-63
2023/01/20 05:30:11;;;;;;;16.70;14.67;;;1.30;99.90;;;;;;6302242;28;20474;-63
2023/01/20 05:33:14;;;;;;;19.13;15.20;;;1.30;99.90;;;;;;6302106;28;20450;-63
2023/01/20 05:36:18;;;;;;;19.27;14.97;;;1.20;99.90;;;;;;6302044;28;20450;-63
2023/01/20 05:39:22;;;;;;;11.40;9.37;;;1.30;99.90;;;;;;6300968;28;20469;-63
2023/01/20 05:42:26;;;;;;;9.20;8.30;;;1.30;99.90;;;;;;6300696;28;20492;-63
2023/01/20 05:45:30;;;;;;;12.30;9.53;;;1.40;99.90;;;;;;6300495;28;20913;-63
2023/01/20 05:48:33;;;;;;;11.27;8.27;;;1.40;99.90;;;;;;6299468;28;20464;-62
2023/01/20 05:51:36;;;;;;;9.67;8.17;;;1.50;99.90;;;;;;6300610;28;20465;-64
2023/01/20 05:54:40;;;;;;;12.83;9.50;;;1.50;99.90;;;;;;6301268;28;20469;-63
2023/01/20 05:57:44;;;;;;;9.37;8.30;;;1.60;99.90;;;;;;6301686;28;20484;-64
2023/01/20 06:00:47;;;;;;;9.57;7.87;;;1.60;99.90;;;;;;6301609;28;21046;-63
2023/01/20 06:03:50;;;;;;;8.77;7.80;;;1.70;99.90;;;;;;6301428;28;20485;-63
2023/01/20 06:06:53;;;;;;;8.70;7.77;;;1.70;99.90;;;;;;6301450;28;20831;-63
2023/01/20 06:09:58;;;;;;;8.27;7.40;;;1.80;99.90;;;;;;6301390;28;20478;-63
2023/01/20 06:13:01;;;;;;;11.80;9.73;;;1.80;99.90;;;;;;6301899;28;20476;-63
2023/01/20 06:16:05;;;;;;;10.80;9.70;;;1.80;99.90;;;;;;6301627;28;20473;-63
2023/01/20 06:19:09;;;;;;;17.10;12.87;;;1.80;99.90;;;;;;6301167;28;20470;-63
2023/01/20 06:22:14;;;;;;;15.40;10.90;;;1.80;99.90;;;;;;6294034;28;20489;-63
2023/01/20 06:25:18;;;;;;;11.67;9.87;;;1.80;99.90;;;;;;6279251;28;20628;-63
2023/01/20 06:28:21;;;;;;;9.77;8.77;;;1.80;99.90;;;;;;6301436;28;20822;-63
2023/01/20 06:31:27;;;;;;;10.57;9.47;;;1.90;99.90;;;;;;6300908;28;20469;-63
2023/01/20 06:34:30;;;;;;;13.93;9.57;;;1.90;99.90;;;;;;6301433;28;20462;-63
2023/01/20 06:37:33;;;;;;;9.47;8.60;;;2.00;99.90;;;;;;6300762;28;20469;-63
2023/01/20 06:40:38;;;;;;;10.33;8.97;;;2.00;99.90;;;;;;6300721;28;20480;-63
2023/01/20 06:43:41;;;;;;;10.57;9.47;;;1.90;99.90;;;;;;6301130;28;20468;-63
2023/01/20 06:46:44;;;;;;;12.10;9.57;;;1.90;99.90;;;;;;6301180;28;20478;-63
2023/01/20 06:49:50;;;;;;;12.53;10.00;;;1.80;99.90;;;;;;6300337;28;20504;-63
2023/01/20 06:52:54;;;;;;;14.10;11.00;;;1.80;99.90;;;;;;6301037;28;20937;-62
2023/01/20 06:56:00;;;;;;;11.60;9.37;;;1.80;99.90;;;;;;6300794;28;20469;-62
2023/01/20 06:59:03;;;;;;;11.80;9.40;;;1.80;99.90;;;;;;6300844;28;20796;-62
2023/01/20 07:02:07;;;;;;;13.17;10.23;;;1.80;99.90;;;;;;6302051;28;20822;-62
2023/01/20 07:05:10;;;;;;;13.87;10.50;;;1.60;99.90;;;;;;6304645;28;20965;-62
2023/01/20 07:08:13;;;;;;;17.50;11.23;;;1.60;99.90;;;;;;6299334;28;20818;-62
2023/01/20 07:11:18;;;;;;;19.70;13.87;;;1.60;99.90;;;;;;6300015;28;20485;-63
2023/01/20 07:14:22;;;;;;;15.10;12.57;;;1.60;99.90;;;;;;6299919;28;20474;-62
2023/01/20 07:17:25;;;;;;;15.83;14.07;;;1.60;99.90;;;;;;6299661;28;20477;-62
2023/01/20 07:20:28;;;;;;;16.83;14.00;;;1.60;99.90;;;;;;6290123;28;20909;-62
2023/01/20 07:23:32;;;;;;;16.43;14.73;;;1.70;99.90;;;;;;6281822;28;20489;-62
2023/01/20 07:26:37;;;;;;;19.13;14.43;;;1.70;99.90;;;;;;6288271;28;20465;-62
2023/01/20 07:29:40;;;;;;;17.57;14.50;;;1.70;99.90;;;;;;6299550;28;20477;-61
2023/01/20 07:32:43;;;;;;;18.10;16.03;;;1.70;99.90;;;;;;6299584;28;20480;-62
2023/01/20 07:35:52;;;;;;;20.97;16.93;;;1.80;99.90;;;;;;6299506;28;20477;-62
2023/01/20 07:38:55;;;;;;;17.27;15.10;;;1.80;99.90;;;;;;6299725;28;20485;-61
2023/01/20 07:41:59;;;;;;;20.03;16.27;;;2.00;99.90;;;;;;6299962;28;20465;-61
2023/01/20 07:45:03;;;;;;;19.93;15.97;;;2.10;99.90;;;;;;6299637;28;20782;-61
2023/01/20 07:48:06;;;;;;;18.50;16.23;;;2.30;99.90;;;;;;6299617;28;20477;-62
2023/01/20 07:51:11;;;;;;;20.00;15.33;;;2.40;99.90;;;;;;6299197;28;20469;-61
2023/01/20 07:54:14;;;;;;;17.47;15.67;;;2.40;99.90;;;;;;6299725;28;20446;-61
2023/01/20 07:57:19;;;;;;;19.83;15.43;;;2.20;99.90;;;;;;6299723;28;20433;-62
2023/01/20 08:00:23;;;;;;;19.50;14.17;;;2.40;99.90;;;;;;6300029;28;20449;-62
2023/01/20 08:03:26;;;;;;;19.23;14.10;;;2.50;99.90;;;;;;6299378;28;20474;-62
2023/01/20 08:06:30;;;;;;;17.40;14.83;;;2.60;99.90;;;;;;6299239;28;20450;-63
2023/01/20 08:09:33;;;;;;;23.10;17.97;;;2.70;99.90;;;;;;6299279;28;20461;-63
2023/01/20 08:12:38;;;;;;;21.07;16.73;;;2.80;99.90;;;;;;6299182;28;20468;-63
2023/01/20 08:15:41;;;;;;;22.03;17.27;;;2.70;99.90;;;;;;6298924;28;20949;-63
2023/01/20 08:18:44;;;;;;;22.17;16.03;;;2.80;99.90;;;;;;6302126;28;20469;-63
2023/01/20 08:21:48;;;;;;;18.37;15.03;;;2.90;99.90;;;;;;6295644;28;20488;-63
2023/01/20 08:24:51;;;;;;;19.93;16.60;;;2.90;99.90;;;;;;6278763;28;20481;-63
2023/01/20 08:27:55;;;;;;;18.90;17.00;;;2.90;99.90;;;;;;6302890;28;20477;-65
2023/01/20 08:31:05;;;;;;;24.23;16.83;;;2.40;99.90;;;;;;6303918;28;20473;-65
2023/01/20 08:34:09;;;;;;;22.37;16.00;;;2.10;99.90;;;;;;6303855;28;20469;-65
2023/01/20 08:37:12;;;;;;;16.87;14.93;;;2.40;99.90;;;;;;6303629;28;20466;-65
2023/01/20 08:40:16;;;;;;;20.87;15.90;;;2.80;99.90;;;;;;6303985;28;20477;-66
2023/01/20 08:43:20;;;;;;;26.40;18.70;;;3.10;99.90;;;;;;6303626;28;20488;-65
2023/01/20 08:46:23;;;;;;;21.53;14.17;;;3.30;99.90;;;;;;6302964;28;21010;-65
2023/01/20 08:49:28;;;;;;;8.23;7.43;;;3.50;99.90;;;;;;6302728;28;20484;-65
2023/01/20 08:52:31;;;;;;;4.80;4.07;;;3.70;99.90;;;;;;6303320;28;20473;-64
2023/01/20 08:55:35;;;;;;;4.40;3.33;;;3.90;99.40;;;;;;6303172;28;20476;-64
2023/01/20 08:58:40;;;;;;;5.50;3.17;;;4.00;94.40;;;;;;6303224;28;20487;-64
2023/01/20 09:01:43;;;;;;;3.60;3.30;;;4.10;93.10;;;;;;6303366;28;20469;-64
2023/01/20 09:04:48;;;;;;;4.10;3.00;;;4.10;92.40;;;;;;6292771;28;20805;-66
2023/01/20 09:07:51;;;;;;;4.50;3.40;;;4.10;91.10;;;;;;6268341;28;20815;-64
2023/01/20 09:11:00;;;;;;;4.00;3.43;;;4.10;91.10;;;;;;6264712;28;20471;-65
2023/01/20 09:14:05;;;;;;;21.00;14.20;;;4.10;90.10;;;;;;6263482;28;20460;-65
2023/01/20 09:17:08;;;;;;;6.90;4.60;;;4.20;90.10;;;;;;6266582;28;20471;-65
2023/01/20 09:20:12;;;;;;;4.37;3.93;;;4.20;90.10;;;;;;6265890;28;20474;-65
2023/01/20 09:23:16;;;;;;;4.40;3.67;;;4.30;88.70;;;;;;6275058;28;20514;-66
2023/01/20 09:26:19;;;;;;;4.57;2.80;;;4.30;88.50;;;;;;6281807;28;20497;-67
2023/01/20 09:29:38;;;;;;;4.27;3.97;;;4.40;86.10;;;;;;6278544;28;20506;-65
2023/01/20 09:32:42;;;;;;;4.20;3.20;;;4.40;84.80;;;;;;6278750;28;20471;-64
2023/01/20 09:35:45;;;;;;;3.60;3.30;;;4.40;84.60;;;;;;6268850;28;20478;-66
2023/01/20 09:45:54;;;;;;;3.33;3.03;;;4.30;84.80;;;;;;6281808;28;20473;-65
2023/01/20 09:55:59;;;;;;;3.63;2.63;;;4.10;84.60;;;;;;6276180;28;20471;-65
2023/01/20 09:59:09;;;;;;;4.60;4.00;;;4.00;84.20;;;;;;6261162;28;20477;-65
2023/01/20 10:02:18;;;;;;;4.53;3.63;;;3.90;84.30;;;;;;6265095;28;20474;-64
2023/01/20 10:05:31;;;;;;;4.97;3.87;;;3.90;83.80;;;;;;6276530;28;20478;-67
2023/01/20 10:08:43;;;;;;;3.70;3.40;;;3.80;84.30;;;;;;6276376;28;20808;-65
2023/01/20 10:12:13;;;;;;;4.00;3.30;;;3.80;84.50;;;;;;6262153;28;20470;-65
2023/01/20 10:15:20;;;;;;;4.67;3.37;;;3.90;85.00;;;;;;6254146;28;20440;-62
2023/01/20 10:18:29;;;;;;;5.90;3.60;;;3.90;85.00;;;;;;6269158;28;20459;-62
2023/01/20 10:21:37;;;;;;;4.23;3.83;;;3.90;84.60;;;;;;6276611;28;20442;-63
2023/01/20 10:24:48;;;;;;;6.80;4.57;;;3.90;84.60;;;;;;6276597;28;20501;-62
2023/01/20 10:27:55;;;;;;;6.03;5.43;;;4.00;84.20;;;;;;6283859;28;21013;-64
2023/01/20 10:31:02;;;;;;;15.10;10.43;;;4.00;84.00;;;;;;6267403;28;20466;-65
2023/01/20 10:34:12;;;;;;;7.33;6.10;;;4.00;83.60;;;;;;6275877;28;20478;-61
2023/01/20 10:37:16;;;;;;;11.83;10.80;;;4.10;84.70;;;;;;6275641;28;20470;-61
2023/01/20 10:40:29;;;;;;;7.10;6.37;;;4.10;83.90;;;;;;6275564;28;20478;-63
2023/01/20 10:43:35;;;;;;;3.70;3.40;;;4.10;83.00;;;;;;6275638;28;20603;-63
2023/01/20 10:46:55;;;;;;;4.93;4.40;;;4.20;83.10;;;;;;6275953;28;20477;-65
2023/01/20 10:50:22;;;;;;;4.23;3.83;;;4.20;82.90;;;;;;6275271;28;20475;-65
2023/01/20 10:53:45;;;;;;;7.07;4.77;;;4.20;81.90;;;;;;6265843;28;20466;-62
2023/01/20 10:56:52;;;;;;;6.70;3.33;;;4.30;82.70;;;;;;6274928;28;20943;-61
2023/01/20 10:59:59;;;;;;;3.27;2.97;;;4.30;81.70;;;;;;6274852;28;20478;-62
2023/01/20 11:03:09;;;;;;;5.20;3.67;;;4.30;81.00;;;;;;6250743;28;20475;-62
2023/01/20 11:06:19;;;;;;;5.03;3.60;;;4.30;81.50;;;;;;6267820;28;20482;-61
2023/01/20 11:09:29;;;;;;;3.70;2.90;;;4.40;81.60;;;;;;6265930;28;20471;-61
2023/01/20 11:12:38;;;;;;;5.03;3.00;;;4.30;80.90;;;;;;6250913;28;20439;-65
2023/01/20 11:15:45;;;;;;;4.10;3.70;;;4.30;80.10;;;;;;6250089;28;20471;-66
2023/01/20 11:18:57;;;;;;;4.47;3.13;;;4.40;80.80;;;;;;6250643;28;20471;-63
2023/01/20 11:22:11;;;;;;;4.03;3.20;;;4.40;80.40;;;;;;6254815;28;20566;-64
2023/01/20 11:25:24;;;;;;;5.53;3.27;;;4.40;80.70;;;;;;6266975;28;20797;-63
2023/01/20 11:28:32;;;;;;;4.17;3.77;;;4.40;79.50;;;;;;6264957;28;20820;-62
2023/01/20 11:31:39;;;;;;;7.00;4.77;;;4.40;80.30;;;;;;6262962;28;20463;-62
2023/01/20 11:34:49;;;;;;;5.60;5.10;;;4.40;80.10;;;;;;6254011;28;20474;-62
2023/01/20 11:37:53;;;;;;;4.30;3.50;;;4.40;79.10;;;;;;6260596;28;20475;-61
2023/01/20 11:40:57;;;;;;;4.10;3.80;;;4.40;80.00;;;;;;6261923;28;20458;-62
2023/01/20 11:44:01;;;;;;;4.47;3.50;;;4.40;78.90;;;;;;6260701;28;20809;-62
2023/01/20 11:47:20;;;;;;;5.47;4.17;;;4.40;78.40;;;;;;6261276;28;20477;-62
2023/01/20 11:50:28;;;;;;;5.40;3.37;;;4.30;78.50;;;;;;6265588;28;20474;-62
2023/01/20 11:53:33;;;;;;;3.70;3.40;;;4.40;79.10;;;;;;6265732;28;20477;-62
2023/01/20 11:56:40;;;;;;;4.00;2.90;;;4.50;79.60;;;;;;6282418;28;20484;-62
2023/01/20 11:59:50;;;;;;;3.57;3.27;;;4.50;79.10;;;;;;6282360;28;20958;-62
2023/01/20 12:02:58;;;;;;;3.70;3.33;;;4.40;78.90;;;;;;6282497;28;20488;-62
2023/01/20 12:06:07;;;;;;;3.53;3.23;;;4.40;79.00;;;;;;6281932;28;20500;-62
2023/01/20 12:09:15;;;;;;;3.03;2.70;;;4.50;79.20;;;;;;6282141;28;20488;-62
2023/01/20 12:12:27;;;;;;;3.63;3.33;;;4.50;79.20;;;;;;6281722;28;21020;-62
2023/01/20 12:15:33;;;;;;;14.30;11.90;;;4.50;78.50;;;;;;6282210;28;20422;-62
2023/01/20 12:18:44;;;;;;;37.47;25.03;;;4.50;78.90;;;;;;6282510;28;20474;-62
2023/01/20 12:22:12;;;;;;;35.87;26.13;;;4.50;79.20;;;;;;6281869;28;20481;-62
2023/01/20 12:25:22;;;;;;;24.93;20.93;;;4.60;78.70;;;;;;6284603;28;20477;-62
2023/01/20 12:28:34;;;;;;;21.23;19.10;;;4.60;78.60;;;;;;6298523;28;20489;-62
2023/01/20 12:31:37;;;;;;;8.13;6.13;;;4.70;78.30;;;;;;6282447;28;20960;-62
2023/01/20 12:34:40;;;;;;;4.93;4.53;;;4.80;78.70;;;;;;6282128;28;20470;-62
2023/01/20 12:37:48;;;;;;;4.80;3.80;;;4.70;77.00;;;;;;6277363;28;20470;-62
2023/01/20 12:40:55;;;;;;;6.70;3.53;;;4.80;77.00;;;;;;6282140;28;20508;-62
2023/01/20 12:44:05;;;;;;;4.10;3.67;;;4.90;77.50;;;;;;6273526;28;20478;-62
2023/01/20 12:47:20;;;;;;;3.97;3.67;;;4.90;77.40;;;;;;6267497;28;20803;-64
2023/01/20 12:50:31;;;;;;;6.50;3.60;;;4.90;77.40;;;;;;6270907;28;20481;-65
2023/01/20 12:53:55;;;;;;;3.50;3.27;;;5.00;77.60;;;;;;6268976;28;20474;-65
2023/01/20 12:57:08;;;;;;;5.30;3.77;;;4.90;77.40;;;;;;6270832;28;20914;-65
2023/01/20 13:00:44;;;;;;;4.00;3.60;;;4.90;77.60;;;;;;6268058;28;20962;-65
2023/01/20 13:04:16;;;;;;;6.87;3.90;;;4.90;77.20;;;;;;6236083;28;20602;-64
2023/01/20 13:07:33;;;;;;;3.27;3.03;;;4.90;77.00;;;;;;6254872;28;20471;-63
2023/01/20 13:10:47;;;;;;;3.77;3.10;;;4.90;77.50;;;;;;6273738;28;20505;-66
2023/01/20 13:14:06;;;;;;;5.13;4.63;;;4.90;77.10;;;;;;6277940;28;20466;-66
2023/01/20 13:17:19;;;;;;;4.37;3.37;;;4.90;77.90;;;;;;6277156;28;20470;-66
2023/01/20 13:20:25;;;;;;;4.93;4.43;;;5.00;78.50;;;;;;6277594;28;20486;-66
2023/01/20 13:23:31;;;;;;;20.30;6.50;;;4.90;78.40;;;;;;6277318;28;20478;-65
2023/01/20 13:26:36;;;;;;;3.50;3.20;;;4.90;78.30;;;;;;6290478;28;20469;-65
2023/01/20 13:29:54;;;;;;;4.67;3.60;;;4.90;77.40;;;;;;6283462;28;20785;-64
2023/01/20 13:33:03;;;;;;;3.63;3.17;;;5.00;78.60;;;;;;6277201;28;20529;-65
2023/01/20 13:36:16;;;;;;;3.40;3.10;;;5.00;78.00;;;;;;6276906;28;20475;-65
2023/01/20 13:39:40;;;;;;;4.07;3.67;;;5.00;78.80;;;;;;6277426;28;20470;-66
2023/01/20 13:42:50;;;;;;;6.27;5.73;;;5.00;77.30;;;;;;6274814;28;20465;-64
2023/01/20 13:46:37;;;;;;;5.90;5.40;;;5.00;78.00;;;;;;6276496;28;20473;-66
2023/01/20 13:49:50;;;;;;;3.80;3.50;;;4.90;78.00;;;;;;6276926;28;20478;-66
2023/01/20 13:53:13;;;;;;;3.40;3.17;;;4.90;77.40;;;;;;6276795;28;20485;-67
2023/01/20 13:56:28;;;;;;;6.83;6.13;;;4.90;77.90;;;;;;6276662;28;20526;-66
2023/01/20 13:59:31;;;;;;;4.17;3.77;;;4.90;76.80;;;;;;6276622;28;20482;-66
2023/01/20 14:02:36;;;;;;;4.97;3.00;;;4.80;77.90;;;;;;6276299;28;20482;-66
2023/01/20 14:05:40;;;;;;;2.90;2.70;;;4.80;77.50;;;;;;6276474;28;20478;-66
2023/01/20 14:08:45;;;;;;;3.77;2.83;;;4.80;77.50;;;;;;6276118;28;20482;-66
2023/01/20 14:11:50;;;;;;;3.70;2.87;;;4.80;76.80;;;;;;6276340;28;20481;-66
2023/01/20 14:14:53;;;;;;;4.23;3.47;;;4.80;77.10;;;;;;6275935;28;20977;-66
2023/01/20 14:17:59;;;;;;;9.23;3.80;;;4.90;77.60;;;;;;6277319;28;20608;-66
2023/01/20 14:21:05;;;;;;;3.57;3.27;;;4.80;76.50;;;;;;6262402;28;20494;-66
2023/01/20 14:24:26;;;;;;;2.60;2.40;;;4.80;76.60;;;;;;6264372;28;20474;-66
2023/01/20 14:27:32;;;;;;;3.17;2.97;;;4.90;76.10;;;;;;6268803;28;20482;-65
2023/01/20 14:30:36;;;;;;;2.90;2.70;;;4.80;75.60;;;;;;6266576;28;20442;-65
2023/01/20 14:33:46;;;;;;;4.17;2.47;;;4.80;75.80;;;;;;6264794;28;20470;-66
2023/01/20 14:36:50;;;;;;;3.80;2.70;;;4.80;75.60;;;;;;6262400;28;20468;-66
2023/01/20 14:39:57;;;;;;;3.87;3.37;;;4.80;75.60;;;;;;6263874;28;20486;-66
2023/01/20 14:43:01;;;;;;;3.97;3.60;;;4.80;74.70;;;;;;6262061;28;20519;-66
2023/01/20 14:46:05;;;;;;;5.73;4.13;;;4.70;75.30;;;;;;6263624;28;20475;-66
2023/01/20 14:49:15;;;;;;;2.73;2.53;;;4.60;75.50;;;;;;6261158;28;20838;-67
2023/01/20 14:52:24;;;;;;;2.77;2.57;;;4.60;75.70;;;;;;6261932;28;20470;-66
2023/01/20 14:55:30;;;;;;;7.60;3.27;;;4.60;74.00;;;;;;6261528;28;20498;-66
2023/01/20 14:58:33;;;;;;;2.43;2.10;;;4.60;74.40;;;;;;6262727;28;20478;-66
2023/01/20 15:01:37;;;;;;;2.70;2.50;;;4.70;75.00;;;;;;6260909;28;20470;-66
2023/01/20 15:04:41;;;;;;;2.03;1.83;;;4.70;74.50;;;;;;6261217;28;20474;-66
2023/01/20 15:07:45;;;;;;;3.43;2.23;;;4.70;74.60;;;;;;6263142;28;20482;-66
2023/01/20 15:11:23;;;;;;;4.67;3.70;;;4.70;73.80;;;;;;6260853;28;20478;-65
2023/01/20 15:14:32;;;;;;;2.60;2.40;;;4.70;73.80;;;;;;6250584;28;20475;-65
2023/01/20 15:17:35;;;;;;;2.57;2.37;;;4.60;73.20;;;;;;6250072;28;20477;-66
2023/01/20 15:20:40;;;;;;;5.63;5.23;;;4.50;72.80;;;;;;6250285;28;20490;-65
2023/01/20 15:23:50;;;;;;;9.30;6.37;;;4.50;73.50;;;;;;6257673;28;20466;-66
2023/01/20 15:26:55;;;;;;;5.40;3.90;;;4.50;74.00;;;;;;6289774;28;20484;-65
2023/01/20 15:30:11;;;;;;;3.20;2.90;;;4.50;73.90;;;;;;6277974;28;20486;-64
2023/01/20 15:33:16;;;;;;;14.00;12.77;;;4.30;73.40;;;;;;6274106;28;20821;-64
2023/01/20 15:36:24;;;;;;;12.10;11.10;;;4.40;73.50;;;;;;6274784;28;20450;-64
2023/01/20 15:39:29;;;;;;;4.30;4.00;;;4.40;73.50;;;;;;6274560;28;20459;-64
2023/01/20 15:42:33;;;;;;;5.60;5.10;;;4.30;73.80;;;;;;6274425;28;20458;-66
2023/01/20 15:45:36;;;;;;;5.53;5.00;;;4.30;75.20;;;;;;6273857;28;20474;-64
2023/01/20 15:48:40;;;;;;;2.57;2.40;;;4.40;73.60;;;;;;6265309;28;20902;-63
2023/01/20 15:51:44;;;;;;;3.60;2.83;;;4.40;73.10;;;;;;6274060;28;20477;-64
2023/01/20 15:54:47;;;;;;;6.30;3.53;;;4.40;73.80;;;;;;6274282;28;20462;-65
2023/01/20 15:57:52;;;;;;;2.00;1.90;;;4.40;74.10;;;;;;6274394;28;20485;-64
2023/01/20 16:00:57;;;;;;;3.13;2.40;;;4.40;74.30;;;;;;6274164;28;20977;-66
2023/01/20 16:04:00;;;;;;;4.10;3.17;;;4.30;74.30;;;;;;6274041;28;20458;-64
2023/01/20 16:07:04;;;;;;;4.53;2.93;;;4.30;74.40;;;;;;6273642;28;20474;-63
2023/01/20 16:10:12;;;;;;;3.67;3.37;;;4.30;74.70;;;;;;6273951;28;20485;-64
2023/01/20 16:13:17;;;;;;;4.07;2.93;;;4.30;75.50;;;;;;6274079;28;20480;-66
2023/01/20 16:16:23;;;;;;;4.53;3.20;;;4.30;75.70;;;;;;6273850;28;20486;-64
2023/01/20 16:19:26;;;;;;;4.50;2.93;;;4.30;75.30;;;;;;6273637;28;20872;-65
2023/01/20 16:22:29;;;;;;;3.80;2.97;;;4.30;75.10;;;;;;6273885;28;20470;-65
2023/01/20 16:25:33;;;;;;;2.90;2.70;;;4.40;74.90;;;;;;6278707;28;20481;-64
2023/01/20 16:28:37;;;;;;;6.43;3.40;;;4.40;74.90;;;;;;6288466;28;20478;-63